Noorvik, Alaska
Current Conditions -  °F | °C
As of 12:58 PM on Friday 19 Dec 2014 (Local Time) from PFNO Reporting Station
Clear Clear  
Wind Chill:   Ceiling: Unl
Heat Index:   Visibility: 10mi
Dew Point: -1°   Wind: 3mph
Humidity: 91%   Direction: 20°NNE
Pressure: 29.45"   Gusts: NA
Location:  66.84°N, 161.04°W
Report Text: PFNO 192158Z AUTO 02003KT 10SM CLR M17/M18 A2945 RMK AO2 SLP974 T11721183 FZRANO
Loading
Personal Weather Stations






























Interactive Weather Map New forecast layout! Learn more

10-Day Weather Forecast

Advertisements
Track Severe Weather on mobile